DAL6155 KJFK-CYHZ
Flight info
| Callsign | DAL6155 |
|---|---|
| Flight time | 1h 20m |
| Altitude | 41000 |
| Route | DCT BETTE DCT ACK DCT TUSKY PEGGY5 |
| Aircraft | A359/H-V/N |
Departure
| Time | 2026-05-04 23:49 |
|---|---|
| Airport | John F. Kennedy International Airport (KJFK) |
Arrival
| Time | 2026-05-05 01:09 |
|---|---|
| Airport | Halifax / Stanfield International Airport (CYHZ) |
| Time | Latitude | Longitude | Altitude | Speed | Heading |
|---|---|---|---|---|---|
| 2026-05-04 23:16 | 40.64152 | -73.78367 | 22 ft | 0 kts | 62° |
| 2026-05-04 23:36 | 40.64144 | -73.78387 | 24 ft | 3 kts | 62° |
| 2026-05-04 23:36 | 40.64136 | -73.78407 | 27 ft | 2 kts | 62° |
| 2026-05-04 23:36 | 40.64128 | -73.78428 | 26 ft | 3 kts | 74° |
| 2026-05-04 23:37 | 40.64125 | -73.78453 | 25 ft | 3 kts | 94° |
| 2026-05-04 23:37 | 40.64129 | -73.78477 | 26 ft | 3 kts | 115° |
| 2026-05-04 23:37 | 40.64131 | -73.78484 | 26 ft | 0 kts | 121° |
| 2026-05-04 23:41 | 40.64090 | -73.78445 | 22 ft | 15 kts | 150° |
| 2026-05-04 23:41 | 40.63998 | -73.78375 | 22 ft | 16 kts | 150° |
| 2026-05-04 23:41 | 40.63900 | -73.78307 | 22 ft | 16 kts | 162° |
| 2026-05-04 23:41 | 40.63782 | -73.78280 | 22 ft | 17 kts | 173° |
| 2026-05-04 23:42 | 40.63662 | -73.78261 | 22 ft | 18 kts | 173° |
| 2026-05-04 23:42 | 40.63595 | -73.78258 | 22 ft | 6 kts | 187° |
| 2026-05-04 23:42 | 40.63519 | -73.78300 | 22 ft | 16 kts | 208° |
| 2026-05-04 23:42 | 40.63447 | -73.78302 | 24 ft | 9 kts | 143° |
| 2026-05-04 23:43 | 40.63382 | -73.78184 | 26 ft | 20 kts | 121° |
| 2026-05-04 23:43 | 40.63331 | -73.78005 | 23 ft | 22 kts | 93° |
| 2026-05-04 23:43 | 40.63385 | -73.77818 | 26 ft | 23 kts | 47° |
| 2026-05-04 23:43 | 40.63526 | -73.77693 | 23 ft | 26 kts | 31° |
| 2026-05-04 23:44 | 40.63688 | -73.77564 | 22 ft | 29 kts | 31° |
| 2026-05-04 23:44 | 40.63865 | -73.77428 | 22 ft | 30 kts | 31° |
| 2026-05-04 23:44 | 40.64053 | -73.77281 | 25 ft | 32 kts | 31° |
| 2026-05-04 23:44 | 40.64242 | -73.77132 | 24 ft | 28 kts | 30° |
| 2026-05-04 23:45 | 40.64356 | -73.77044 | 23 ft | 18 kts | 29° |
| 2026-05-04 23:45 | 40.64475 | -73.76993 | 22 ft | 18 kts | 11° |
| 2026-05-04 23:45 | 40.64591 | -73.76924 | 23 ft | 18 kts | 30° |
| 2026-05-04 23:45 | 40.64665 | -73.76866 | 27 ft | 9 kts | 31° |
| 2026-05-04 23:46 | 40.64729 | -73.76816 | 30 ft | 12 kts | 31° |
| 2026-05-04 23:46 | 40.64804 | -73.76756 | 27 ft | 14 kts | 31° |
| 2026-05-04 23:46 | 40.64905 | -73.76677 | 22 ft | 19 kts | 31° |
| 2026-05-04 23:46 | 40.65014 | -73.76572 | 22 ft | 15 kts | 64° |
| 2026-05-04 23:47 | 40.65010 | -73.76538 | 22 ft | 11 kts | 117° |
| 2026-05-04 23:47 | 40.64940 | -73.76439 | 22 ft | 14 kts | 171° |
| 2026-05-04 23:47 | 40.64908 | -73.76450 | 22 ft | 0 kts | 209° |
| 2026-05-04 23:48 | 40.64726 | -73.76588 | 26 ft | 77 kts | 211° |
| 2026-05-04 23:48 | 40.64007 | -73.77156 | 58 ft | 162 kts | 215° |
| 2026-05-04 23:48 | 40.62920 | -73.78039 | 553 ft | 204 kts | 205° |
| 2026-05-04 23:49 | 40.61506 | -73.78971 | 1151 ft | 249 kts | 205° |
| 2026-05-04 23:49 | 40.59970 | -73.79970 | 1779 ft | 240 kts | 209° |
| 2026-05-04 23:49 | 40.58519 | -73.81046 | 2590 ft | 240 kts | 211° |
| 2026-05-04 23:49 | 40.57058 | -73.82128 | 3423 ft | 243 kts | 212° |
| 2026-05-04 23:50 | 40.55572 | -73.83209 | 4227 ft | 246 kts | 211° |
| 2026-05-04 23:50 | 40.53952 | -73.84013 | 4829 ft | 253 kts | 193° |
| 2026-05-04 23:50 | 40.52248 | -73.84604 | 5346 ft | 253 kts | 204° |
| 2026-05-04 23:50 | 40.50525 | -73.85167 | 5921 ft | 261 kts | 187° |
| 2026-05-04 23:51 | 40.48714 | -73.84738 | 6527 ft | 274 kts | 160° |
| 2026-05-04 23:51 | 40.47150 | -73.83233 | 7118 ft | 286 kts | 134° |
| 2026-05-04 23:51 | 40.46178 | -73.80921 | 7720 ft | 295 kts | 108° |
| 2026-05-04 23:51 | 40.45993 | -73.78233 | 8326 ft | 299 kts | 83° |
| 2026-05-04 23:52 | 40.46309 | -73.75521 | 8944 ft | 303 kts | 78° |
| 2026-05-04 23:52 | 40.46703 | -73.72794 | 9569 ft | 306 kts | 77° |
| 2026-05-04 23:52 | 40.47100 | -73.70032 | 10172 ft | 309 kts | 77° |
| 2026-05-04 23:52 | 40.47495 | -73.67247 | 10749 ft | 312 kts | 77° |
| 2026-05-04 23:53 | 40.47898 | -73.64425 | 11344 ft | 316 kts | 77° |
| 2026-05-04 23:53 | 40.48306 | -73.61576 | 11955 ft | 320 kts | 77° |
| 2026-05-04 23:53 | 40.48719 | -73.58691 | 12558 ft | 324 kts | 78° |
| 2026-05-04 23:53 | 40.49115 | -73.55744 | 13189 ft | 329 kts | 78° |
| 2026-05-04 23:54 | 40.49496 | -73.52766 | 13813 ft | 333 kts | 79° |
| 2026-05-04 23:54 | 40.49874 | -73.49739 | 14389 ft | 338 kts | 79° |
| 2026-05-04 23:54 | 40.50254 | -73.46687 | 14965 ft | 340 kts | 79° |
| 2026-05-04 23:54 | 40.50639 | -73.43601 | 15560 ft | 343 kts | 79° |
| 2026-05-04 23:55 | 40.51027 | -73.40504 | 16169 ft | 345 kts | 79° |
| 2026-05-04 23:55 | 40.51419 | -73.37387 | 16770 ft | 347 kts | 79° |
| 2026-05-04 23:55 | 40.52212 | -73.31084 | 18041 ft | 352 kts | 79° |
| 2026-05-04 23:56 | 40.52613 | -73.27896 | 18630 ft | 355 kts | 79° |
| 2026-05-04 23:56 | 40.53016 | -73.24679 | 19204 ft | 357 kts | 79° |
| 2026-05-04 23:56 | 40.53420 | -73.21446 | 19791 ft | 359 kts | 78° |
| 2026-05-04 23:56 | 40.53825 | -73.18191 | 20387 ft | 362 kts | 78° |
| 2026-05-04 23:57 | 40.54232 | -73.14921 | 20992 ft | 364 kts | 78° |
| 2026-05-04 23:57 | 40.54641 | -73.11621 | 21614 ft | 367 kts | 78° |
| 2026-05-04 23:57 | 40.55052 | -73.08301 | 22247 ft | 369 kts | 78° |
| 2026-05-04 23:57 | 40.55466 | -73.04956 | 22898 ft | 372 kts | 78° |
| 2026-05-04 23:58 | 40.55956 | -73.01610 | 23551 ft | 373 kts | 72° |
| 2026-05-04 23:58 | 40.56678 | -72.98330 | 24115 ft | 374 kts | 69° |
| 2026-05-04 23:58 | 40.57470 | -72.95061 | 24696 ft | 376 kts | 68° |
| 2026-05-04 23:58 | 40.58298 | -72.91798 | 25284 ft | 377 kts | 67° |
| 2026-05-04 23:59 | 40.59146 | -72.88528 | 25869 ft | 379 kts | 67° |
| 2026-05-04 23:59 | 40.60009 | -72.85219 | 26212 ft | 388 kts | 67° |
| 2026-05-04 23:59 | 40.60897 | -72.81814 | 26492 ft | 399 kts | 67° |
| 2026-05-04 23:59 | 40.61792 | -72.78360 | 26769 ft | 410 kts | 67° |
| 2026-05-05 00:00 | 40.62730 | -72.74710 | 27055 ft | 420 kts | 67° |
| 2026-05-05 00:00 | 40.63035 | -72.73518 | 27145 ft | 424 kts | 67° |
| 2026-05-05 00:00 | 40.64624 | -72.67283 | 27624 ft | 441 kts | 68° |
| 2026-05-05 00:00 | 40.65608 | -72.63407 | 27927 ft | 451 kts | 68° |
| 2026-05-05 00:01 | 40.66609 | -72.59451 | 28229 ft | 460 kts | 68° |
| 2026-05-05 00:01 | 40.67627 | -72.55424 | 28502 ft | 467 kts | 68° |
| 2026-05-05 00:01 | 40.68660 | -72.51330 | 28805 ft | 475 kts | 68° |
| 2026-05-05 00:01 | 40.69710 | -72.47165 | 29113 ft | 483 kts | 68° |
| 2026-05-05 00:02 | 40.70779 | -72.42917 | 29418 ft | 491 kts | 68° |
| 2026-05-05 00:02 | 40.71859 | -72.38622 | 29716 ft | 498 kts | 68° |
| 2026-05-05 00:02 | 40.72953 | -72.34257 | 30023 ft | 504 kts | 68° |
| 2026-05-05 00:02 | 40.74057 | -72.29847 | 30289 ft | 509 kts | 68° |
| 2026-05-05 00:03 | 40.75172 | -72.25384 | 30561 ft | 514 kts | 68° |
| 2026-05-05 00:03 | 40.76292 | -72.20891 | 30833 ft | 518 kts | 68° |
| 2026-05-05 00:03 | 40.77413 | -72.16386 | 31101 ft | 519 kts | 68° |
| 2026-05-05 00:03 | 40.78539 | -72.11849 | 31383 ft | 520 kts | 68° |
| 2026-05-05 00:04 | 40.79660 | -72.07318 | 31669 ft | 518 kts | 68° |
| 2026-05-05 00:04 | 40.80775 | -72.02806 | 31966 ft | 517 kts | 68° |
| 2026-05-05 00:04 | 40.81887 | -71.98299 | 32256 ft | 515 kts | 67° |
| 2026-05-05 00:04 | 40.82997 | -71.93797 | 32550 ft | 514 kts | 67° |
| 2026-05-05 00:05 | 40.84098 | -71.89323 | 32845 ft | 513 kts | 67° |
| 2026-05-05 00:05 | 40.85199 | -71.84842 | 33151 ft | 511 kts | 67° |
| 2026-05-05 00:05 | 40.86292 | -71.80386 | 33451 ft | 510 kts | 67° |
| 2026-05-05 00:05 | 40.87383 | -71.75930 | 33761 ft | 509 kts | 67° |
| 2026-05-05 00:06 | 40.88466 | -71.71495 | 34053 ft | 507 kts | 67° |
| 2026-05-05 00:06 | 40.89548 | -71.67058 | 34315 ft | 507 kts | 67° |
| 2026-05-05 00:06 | 40.90628 | -71.62620 | 34581 ft | 507 kts | 68° |
| 2026-05-05 00:06 | 40.91707 | -71.58176 | 34842 ft | 508 kts | 68° |
| 2026-05-05 00:07 | 40.92786 | -71.53729 | 35104 ft | 508 kts | 68° |
| 2026-05-05 00:07 | 40.93865 | -71.49270 | 35379 ft | 509 kts | 68° |
| 2026-05-05 00:07 | 40.94943 | -71.44807 | 35655 ft | 510 kts | 68° |
| 2026-05-05 00:07 | 40.96021 | -71.40339 | 35948 ft | 511 kts | 69° |
| 2026-05-05 00:08 | 40.97102 | -71.35847 | 36220 ft | 511 kts | 69° |
| 2026-05-05 00:08 | 40.98179 | -71.31360 | 36505 ft | 512 kts | 69° |
| 2026-05-05 00:08 | 40.99256 | -71.26868 | 36798 ft | 513 kts | 69° |
| 2026-05-05 00:08 | 41.00331 | -71.22371 | 37092 ft | 513 kts | 70° |
| 2026-05-05 00:09 | 41.01407 | -71.17866 | 37396 ft | 513 kts | 70° |
| 2026-05-05 00:09 | 41.02481 | -71.13355 | 37685 ft | 513 kts | 70° |
| 2026-05-05 00:09 | 41.03553 | -71.08849 | 38000 ft | 513 kts | 70° |
| 2026-05-05 00:09 | 41.04623 | -71.04341 | 38313 ft | 513 kts | 70° |
| 2026-05-05 00:10 | 41.05692 | -70.99825 | 38633 ft | 513 kts | 71° |
| 2026-05-05 00:10 | 41.06757 | -70.95323 | 38876 ft | 512 kts | 71° |
| 2026-05-05 00:10 | 41.07819 | -70.90820 | 39120 ft | 512 kts | 71° |
| 2026-05-05 00:10 | 41.08880 | -70.86318 | 39368 ft | 511 kts | 71° |
| 2026-05-05 00:11 | 41.09935 | -70.81827 | 39617 ft | 510 kts | 71° |
| 2026-05-05 00:11 | 41.10986 | -70.77348 | 39871 ft | 509 kts | 71° |
| 2026-05-05 00:11 | 41.12034 | -70.72871 | 40126 ft | 507 kts | 71° |
| 2026-05-05 00:11 | 41.13077 | -70.68404 | 40382 ft | 506 kts | 71° |
| 2026-05-05 00:12 | 41.14114 | -70.63959 | 40649 ft | 504 kts | 71° |
| 2026-05-05 00:12 | 41.15146 | -70.59522 | 40893 ft | 503 kts | 71° |
| 2026-05-05 00:12 | 41.16179 | -70.55079 | 40968 ft | 506 kts | 71° |
| 2026-05-05 00:13 | 41.18254 | -70.46122 | 40966 ft | 515 kts | 72° |
| 2026-05-05 00:13 | 41.20367 | -70.36964 | 40976 ft | 524 kts | 72° |
| 2026-05-05 00:14 | 41.22509 | -70.27636 | 40970 ft | 532 kts | 72° |
| 2026-05-05 00:14 | 41.24675 | -70.18168 | 40971 ft | 539 kts | 72° |
| 2026-05-05 00:15 | 41.26920 | -70.08595 | 40973 ft | 543 kts | 68° |
| 2026-05-05 00:15 | 41.30623 | -69.99957 | 40964 ft | 536 kts | 47° |
| 2026-05-05 00:16 | 41.35872 | -69.92991 | 40969 ft | 533 kts | 40° |
| 2026-05-05 00:16 | 41.41261 | -69.86201 | 40975 ft | 534 kts | 40° |
| 2026-05-05 00:17 | 41.46644 | -69.79392 | 40976 ft | 534 kts | 40° |
| 2026-05-05 00:17 | 41.51151 | -69.73675 | 40973 ft | 534 kts | 40° |
| 2026-05-05 00:18 | 41.56530 | -69.66837 | 40973 ft | 534 kts | 40° |
| 2026-05-05 00:18 | 41.61914 | -69.59976 | 40973 ft | 534 kts | 40° |
| 2026-05-05 00:19 | 41.67287 | -69.53111 | 40976 ft | 535 kts | 40° |
| 2026-05-05 00:19 | 41.72660 | -69.46230 | 40973 ft | 535 kts | 40° |
| 2026-05-05 00:20 | 41.78040 | -69.39323 | 40975 ft | 535 kts | 40° |
| 2026-05-05 00:20 | 41.83407 | -69.32415 | 40972 ft | 535 kts | 41° |
| 2026-05-05 00:21 | 41.88775 | -69.25490 | 40969 ft | 536 kts | 41° |
| 2026-05-05 00:21 | 41.94134 | -69.18559 | 40971 ft | 536 kts | 41° |
| 2026-05-05 00:22 | 41.99507 | -69.11592 | 40971 ft | 536 kts | 41° |
| 2026-05-05 00:22 | 42.04870 | -69.04623 | 40965 ft | 536 kts | 41° |
| 2026-05-05 00:23 | 42.10219 | -68.97653 | 40964 ft | 536 kts | 41° |
| 2026-05-05 00:23 | 42.15588 | -68.90640 | 40961 ft | 536 kts | 41° |
| 2026-05-05 00:24 | 42.20936 | -68.83637 | 40961 ft | 536 kts | 41° |
| 2026-05-05 00:24 | 42.26286 | -68.76614 | 40959 ft | 536 kts | 41° |
| 2026-05-05 00:25 | 42.31599 | -68.69621 | 40952 ft | 537 kts | 41° |
| 2026-05-05 00:25 | 42.36944 | -68.62571 | 40952 ft | 537 kts | 41° |
| 2026-05-05 00:26 | 42.42284 | -68.55508 | 40948 ft | 537 kts | 41° |
| 2026-05-05 00:26 | 42.47619 | -68.48435 | 40947 ft | 537 kts | 41° |
| 2026-05-05 00:27 | 42.52951 | -68.41347 | 40944 ft | 537 kts | 41° |
| 2026-05-05 00:27 | 42.58283 | -68.34242 | 40938 ft | 537 kts | 41° |
| 2026-05-05 00:28 | 42.63605 | -68.27131 | 40935 ft | 537 kts | 41° |
| 2026-05-05 00:28 | 42.68935 | -68.19991 | 40933 ft | 537 kts | 42° |
| 2026-05-05 00:29 | 42.74257 | -68.12846 | 40931 ft | 538 kts | 42° |
| 2026-05-05 00:29 | 42.79575 | -68.05686 | 40927 ft | 538 kts | 42° |
| 2026-05-05 00:30 | 42.84895 | -67.98506 | 40924 ft | 538 kts | 42° |
| 2026-05-05 00:30 | 42.90212 | -67.91312 | 40921 ft | 539 kts | 42° |
| 2026-05-05 00:31 | 42.95526 | -67.84102 | 40921 ft | 539 kts | 42° |
| 2026-05-05 00:31 | 43.00839 | -67.76876 | 40916 ft | 539 kts | 42° |
| 2026-05-05 00:32 | 43.06151 | -67.69632 | 40917 ft | 540 kts | 42° |
| 2026-05-05 00:32 | 43.11423 | -67.62322 | 40907 ft | 541 kts | 46° |
| 2026-05-05 00:33 | 43.15681 | -67.53802 | 40909 ft | 544 kts | 60° |
| 2026-05-05 00:33 | 43.19325 | -67.44690 | 40906 ft | 546 kts | 60° |
| 2026-05-05 00:34 | 43.22940 | -67.35543 | 40906 ft | 546 kts | 60° |
| 2026-05-05 00:34 | 43.26550 | -67.26377 | 40907 ft | 546 kts | 60° |
| 2026-05-05 00:35 | 43.30150 | -67.17204 | 40903 ft | 546 kts | 60° |
| 2026-05-05 00:35 | 43.33749 | -67.08003 | 40905 ft | 547 kts | 60° |
| 2026-05-05 00:36 | 43.37340 | -66.98794 | 40903 ft | 547 kts | 61° |
| 2026-05-05 00:36 | 43.40924 | -66.89572 | 40897 ft | 547 kts | 61° |
| 2026-05-05 00:37 | 43.44504 | -66.80332 | 40899 ft | 547 kts | 61° |
| 2026-05-05 00:37 | 43.48077 | -66.71076 | 40895 ft | 548 kts | 61° |
| 2026-05-05 00:38 | 43.51644 | -66.61809 | 40892 ft | 548 kts | 61° |
| 2026-05-05 00:38 | 43.55203 | -66.52532 | 40890 ft | 548 kts | 61° |
| 2026-05-05 00:39 | 43.58734 | -66.43296 | 40883 ft | 548 kts | 61° |
| 2026-05-05 00:39 | 43.62283 | -66.33983 | 40886 ft | 548 kts | 61° |
| 2026-05-05 00:40 | 43.65822 | -66.24667 | 40887 ft | 548 kts | 61° |
| 2026-05-05 00:40 | 43.69356 | -66.15331 | 40888 ft | 548 kts | 61° |
| 2026-05-05 00:41 | 43.72882 | -66.05985 | 40887 ft | 548 kts | 62° |
| 2026-05-05 00:41 | 43.76402 | -65.96625 | 40887 ft | 548 kts | 62° |
| 2026-05-05 00:42 | 43.79914 | -65.87255 | 40891 ft | 548 kts | 62° |
| 2026-05-05 00:42 | 43.83419 | -65.77871 | 40882 ft | 549 kts | 62° |
| 2026-05-05 00:43 | 43.86895 | -65.68533 | 40425 ft | 542 kts | 62° |
| 2026-05-05 00:43 | 43.88626 | -65.63870 | 39776 ft | 546 kts | 62° |
| 2026-05-05 00:43 | 43.90368 | -65.59174 | 38977 ft | 548 kts | 61° |
| 2026-05-05 00:43 | 43.92112 | -65.54460 | 38071 ft | 549 kts | 61° |
| 2026-05-05 00:44 | 43.93854 | -65.49744 | 37062 ft | 550 kts | 61° |
| 2026-05-05 00:44 | 43.95594 | -65.45022 | 36111 ft | 550 kts | 60° |
| 2026-05-05 00:44 | 43.97332 | -65.40301 | 35204 ft | 549 kts | 60° |
| 2026-05-05 00:44 | 43.99069 | -65.35575 | 34315 ft | 549 kts | 60° |
| 2026-05-05 00:45 | 44.00800 | -65.30856 | 33356 ft | 548 kts | 59° |
| 2026-05-05 00:45 | 44.02524 | -65.26141 | 32337 ft | 547 kts | 58° |
| 2026-05-05 00:45 | 44.04236 | -65.21449 | 31386 ft | 542 kts | 57° |
| 2026-05-05 00:45 | 44.05932 | -65.16794 | 30443 ft | 538 kts | 56° |
| 2026-05-05 00:46 | 44.07616 | -65.12164 | 29509 ft | 534 kts | 55° |
| 2026-05-05 00:46 | 44.09288 | -65.07580 | 28537 ft | 530 kts | 56° |
| 2026-05-05 00:46 | 44.10948 | -65.03026 | 27511 ft | 526 kts | 56° |
| 2026-05-05 00:46 | 44.12595 | -64.98495 | 26504 ft | 523 kts | 56° |
| 2026-05-05 00:47 | 44.14229 | -64.93990 | 25524 ft | 519 kts | 57° |
| 2026-05-05 00:47 | 44.15847 | -64.89519 | 24592 ft | 516 kts | 57° |
| 2026-05-05 00:47 | 44.17457 | -64.85062 | 23684 ft | 513 kts | 58° |
| 2026-05-05 00:47 | 44.19054 | -64.80631 | 22667 ft | 510 kts | 58° |
| 2026-05-05 00:48 | 44.20635 | -64.76232 | 21620 ft | 505 kts | 58° |
| 2026-05-05 00:48 | 44.22197 | -64.71878 | 20642 ft | 499 kts | 58° |
| 2026-05-05 00:48 | 44.23740 | -64.67574 | 19674 ft | 493 kts | 59° |
| 2026-05-05 00:48 | 44.25264 | -64.63316 | 18737 ft | 488 kts | 59° |
| 2026-05-05 00:49 | 44.26747 | -64.59168 | 17804 ft | 482 kts | 59° |
| 2026-05-05 00:49 | 44.28235 | -64.54997 | 16776 ft | 477 kts | 59° |
| 2026-05-05 00:49 | 44.29702 | -64.50878 | 15793 ft | 471 kts | 59° |
| 2026-05-05 00:49 | 44.31149 | -64.46809 | 14837 ft | 465 kts | 59° |
| 2026-05-05 00:50 | 44.32578 | -64.42787 | 13907 ft | 460 kts | 59° |
| 2026-05-05 00:50 | 44.33992 | -64.38799 | 12912 ft | 455 kts | 59° |
| 2026-05-05 00:50 | 44.35384 | -64.34871 | 11946 ft | 447 kts | 59° |
| 2026-05-05 00:50 | 44.36751 | -64.31007 | 11014 ft | 440 kts | 59° |
| 2026-05-05 00:51 | 44.38098 | -64.27193 | 10364 ft | 434 kts | 60° |
| 2026-05-05 00:51 | 44.39524 | -64.23522 | 10046 ft | 427 kts | 52° |
| 2026-05-05 00:51 | 44.41292 | -64.20250 | 9980 ft | 412 kts | 45° |
| 2026-05-05 00:51 | 44.43035 | -64.17304 | 10004 ft | 371 kts | 44° |
| 2026-05-05 00:52 | 44.44601 | -64.14686 | 10007 ft | 334 kts | 43° |
| 2026-05-05 00:52 | 44.46078 | -64.12258 | 9990 ft | 324 kts | 42° |
| 2026-05-05 00:52 | 44.47549 | -64.09876 | 9990 ft | 323 kts | 42° |
| 2026-05-05 00:52 | 44.49022 | -64.07492 | 9990 ft | 324 kts | 42° |
| 2026-05-05 00:53 | 44.50495 | -64.05103 | 9988 ft | 324 kts | 42° |
| 2026-05-05 00:53 | 44.51965 | -64.02715 | 9986 ft | 324 kts | 42° |
| 2026-05-05 00:53 | 44.53435 | -64.00325 | 9981 ft | 324 kts | 42° |
| 2026-05-05 00:53 | 44.54903 | -63.97936 | 9984 ft | 324 kts | 42° |
| 2026-05-05 00:54 | 44.56373 | -63.95540 | 9986 ft | 324 kts | 42° |
| 2026-05-05 00:54 | 44.57842 | -63.93144 | 9991 ft | 324 kts | 42° |
| 2026-05-05 00:54 | 44.59309 | -63.90749 | 9993 ft | 324 kts | 42° |
| 2026-05-05 00:54 | 44.60777 | -63.88352 | 9996 ft | 324 kts | 42° |
| 2026-05-05 00:55 | 44.62246 | -63.85948 | 9773 ft | 323 kts | 43° |
| 2026-05-05 00:55 | 44.63704 | -63.83560 | 9377 ft | 322 kts | 43° |
| 2026-05-05 00:55 | 44.65157 | -63.81179 | 9063 ft | 321 kts | 43° |
| 2026-05-05 00:55 | 44.66611 | -63.78794 | 8997 ft | 322 kts | 43° |
| 2026-05-05 00:56 | 44.68066 | -63.76407 | 8999 ft | 321 kts | 43° |
| 2026-05-05 00:56 | 44.69517 | -63.74023 | 9003 ft | 321 kts | 43° |
| 2026-05-05 00:56 | 44.70967 | -63.71640 | 9003 ft | 321 kts | 43° |
| 2026-05-05 00:56 | 44.72419 | -63.69252 | 9006 ft | 321 kts | 43° |
| 2026-05-05 00:57 | 44.73869 | -63.66863 | 9008 ft | 321 kts | 43° |
| 2026-05-05 00:57 | 44.75300 | -63.64504 | 9006 ft | 321 kts | 43° |
| 2026-05-05 00:57 | 44.76750 | -63.62114 | 8988 ft | 321 kts | 43° |
| 2026-05-05 00:57 | 44.78203 | -63.59717 | 8985 ft | 321 kts | 43° |
| 2026-05-05 00:58 | 44.79649 | -63.57325 | 8868 ft | 320 kts | 43° |
| 2026-05-05 00:58 | 44.81093 | -63.54937 | 8595 ft | 320 kts | 43° |
| 2026-05-05 00:58 | 44.82513 | -63.52581 | 8169 ft | 309 kts | 43° |
| 2026-05-05 00:58 | 44.83870 | -63.50318 | 7744 ft | 296 kts | 43° |
| 2026-05-05 00:59 | 44.85197 | -63.48119 | 7321 ft | 293 kts | 42° |
| 2026-05-05 00:59 | 44.86517 | -63.45936 | 7031 ft | 292 kts | 42° |
| 2026-05-05 00:59 | 44.87834 | -63.43755 | 6830 ft | 292 kts | 42° |
| 2026-05-05 00:59 | 44.89141 | -63.41583 | 6419 ft | 285 kts | 43° |
| 2026-05-05 01:00 | 44.90402 | -63.39481 | 5981 ft | 278 kts | 42° |
| 2026-05-05 01:00 | 44.91645 | -63.37413 | 5509 ft | 275 kts | 42° |
| 2026-05-05 01:00 | 44.92882 | -63.35358 | 5057 ft | 274 kts | 42° |
| 2026-05-05 01:00 | 44.94109 | -63.33316 | 4614 ft | 272 kts | 42° |
| 2026-05-05 01:01 | 44.95325 | -63.31292 | 4170 ft | 268 kts | 43° |
| 2026-05-05 01:01 | 44.96487 | -63.29341 | 3996 ft | 249 kts | 43° |
| 2026-05-05 01:01 | 44.97198 | -63.28142 | 3999 ft | 231 kts | 41° |
| 2026-05-05 01:01 | 44.98315 | -63.26653 | 4009 ft | 214 kts | 27° |
| 2026-05-05 01:02 | 44.99609 | -63.25914 | 3990 ft | 190 kts | 352° |
| 2026-05-05 01:02 | 45.00797 | -63.26290 | 3981 ft | 168 kts | 320° |
| 2026-05-05 01:02 | 45.01766 | -63.27158 | 3981 ft | 163 kts | 314° |
| 2026-05-05 01:02 | 45.02690 | -63.28086 | 3985 ft | 163 kts | 314° |
| 2026-05-05 01:03 | 45.03592 | -63.29038 | 3975 ft | 160 kts | 310° |
| 2026-05-05 01:03 | 45.04090 | -63.30339 | 3986 ft | 150 kts | 274° |
| 2026-05-05 01:03 | 45.03826 | -63.31744 | 3989 ft | 152 kts | 247° |
| 2026-05-05 01:03 | 45.03274 | -63.33028 | 3937 ft | 154 kts | 244° |
| 2026-05-05 01:04 | 45.02686 | -63.34288 | 3750 ft | 153 kts | 243° |
| 2026-05-05 01:04 | 45.01508 | -63.36794 | 3229 ft | 154 kts | 243° |
| 2026-05-05 01:04 | 45.00917 | -63.38049 | 3006 ft | 153 kts | 242° |
| 2026-05-05 01:05 | 45.00157 | -63.39150 | 2981 ft | 158 kts | 229° |
| 2026-05-05 01:05 | 44.99315 | -63.40052 | 2977 ft | 146 kts | 227° |
| 2026-05-05 01:05 | 44.98513 | -63.40886 | 2840 ft | 141 kts | 227° |
| 2026-05-05 01:05 | 44.97712 | -63.41683 | 2636 ft | 141 kts | 226° |
| 2026-05-05 01:06 | 44.96909 | -63.42476 | 2449 ft | 141 kts | 226° |
| 2026-05-05 01:06 | 44.96109 | -63.43273 | 2254 ft | 140 kts | 226° |
| 2026-05-05 01:06 | 44.95311 | -63.44067 | 2068 ft | 140 kts | 225° |
| 2026-05-05 01:06 | 44.94518 | -63.44855 | 1864 ft | 137 kts | 224° |
| 2026-05-05 01:07 | 44.93801 | -63.45563 | 1711 ft | 132 kts | 224° |
| 2026-05-05 01:07 | 44.93061 | -63.46298 | 1516 ft | 129 kts | 223° |
| 2026-05-05 01:07 | 44.92331 | -63.47024 | 1337 ft | 129 kts | 223° |
| 2026-05-05 01:07 | 44.91587 | -63.47763 | 1153 ft | 131 kts | 220° |
| 2026-05-05 01:08 | 44.90849 | -63.48492 | 988 ft | 129 kts | 219° |
| 2026-05-05 01:08 | 44.90114 | -63.49221 | 814 ft | 130 kts | 218° |
| 2026-05-05 01:08 | 44.89364 | -63.49965 | 639 ft | 132 kts | 218° |
| 2026-05-05 01:08 | 44.88610 | -63.50709 | 481 ft | 135 kts | 217° |
| 2026-05-05 01:09 | 44.87930 | -63.51387 | 462 ft | 87 kts | 214° |
| 2026-05-05 01:09 | 44.87657 | -63.51655 | 463 ft | 25 kts | 215° |
| 2026-05-05 01:09 | 44.87470 | -63.51884 | 461 ft | 46 kts | 242° |
| 2026-05-05 01:09 | 44.87455 | -63.52050 | 463 ft | 0 kts | 290° |
| 2026-05-05 01:10 | 44.87470 | -63.52091 | 462 ft | 13 kts | 301° |
| 2026-05-05 01:10 | 44.87522 | -63.52107 | 463 ft | 10 kts | 20° |
| 2026-05-05 01:10 | 44.87672 | -63.51966 | 463 ft | 31 kts | 35° |
| 2026-05-05 01:10 | 44.87850 | -63.51787 | 462 ft | 32 kts | 35° |
| 2026-05-05 01:11 | 44.88041 | -63.51600 | 462 ft | 34 kts | 35° |
| 2026-05-05 01:11 | 44.88208 | -63.51435 | 461 ft | 15 kts | 35° |
| 2026-05-05 01:11 | 44.88303 | -63.51341 | 460 ft | 18 kts | 35° |
| 2026-05-05 01:11 | 44.88411 | -63.51227 | 461 ft | 19 kts | 27° |
| 2026-05-05 01:12 | 44.88531 | -63.51230 | 460 ft | 8 kts | 330° |
| 2026-05-05 01:12 | 44.88546 | -63.51282 | 460 ft | 11 kts | 284° |
| 2026-05-05 01:12 | 44.88549 | -63.51316 | 460 ft | 0 kts | 272° |